Tiempo atmosférico en la estación meteorológica de Almonte, Huelva (5 m.)

Fecha
DESCASC
Temp. máxima en grados centígrados (hora)
DESCASC
Temp. mínima en grados centígrados (hora)
DESCASC
Temp. media en grados centígrados
DESCASC
Racha de viento máxima en m/sg (hora)
DESCASC
Velocidad máxima media en intervalos de 10 minutos(hora)
DESCASC
Precipitaciones diarias en mm
DESCASC
Precipitaciones de 00:00 a 06:00 en mm
DESCASC
Precipitaciones de 06:00 a 12:00 en mm
DESCASC
Precipitaciones de 12:00 a 18:00 en mm
DESCASC
Precipitaciones de 18:00 a 24:00 en mm
DESCASC
21-08-2017 37.5 (14:20) 17.8 (08:00) 27.6 10 (15:10) 6.67 (17:40) 0 0 0 0 0
20-08-2017 38.4 (15:10) 17.4 (07:00) 27.9 8.89 (17:10) 6.67 (17:10) 0 0 0 0 0
19-08-2017 35.1 (14:00) 16.4 (08:30) 25.7 8.33 (14:50) 6.67 (16:30) 0 0 0 0 0
18-08-2017 34 (17:50) 16.8 (07:40) 25.4 9.17 (16:30) 7.22 (16:30) 0 0 0 0 0
17-08-2017 33.1 (15:40) 16 (00:00) 24.5 8.61 (17:50) 6.39 (17:40) 0 0 0 0 0
16-08-2017 35.8 (16:40) 16 (00:00) 25.9 8.89 (19:00) 6.67 (17:20) 0 0 0 0 0
15-08-2017 33.2 (15:30) 19.3 (00:00) 26.3 10.28 (19:40) 7.78 (18:20) 0 0 0 0 0
14-08-2017 35.8 (14:20) 15.7 (07:00) 25.7 10.28 (17:10) 7.5 (17:30) 0 0 0 0 0
13-08-2017 35.7 (14:30) 15.6 (00:00) 25.7 8.61 (20:00) 6.39 (17:50) 0 0 0 0 0
12-08-2017 35.9 (14:30) 16.5 (00:00) 26.2 8.89 (16:50) 6.67 (16:50) 0 0 0 0 0
11-08-2017 35.6 (15:50) 17 (00:00) 26.3 11.11 (16:40) 8.33 (16:40) 0 0 0 0 0
10-08-2017 35.9 (16:50) 13.7 (00:00) 24.8 9.72 (12:20) 6.11 (17:50) 0 0 0 0 0
09-08-2017 28.3 (15:20) 13.5 (00:00) 20.9 10.83 (15:20) 8.06 (15:40) 0 0 0 0 0
08-08-2017 34.1 (14:20) 17.8 (00:00) 25.9 11.39 (17:30) 8.61 (17:20) 0 0 0 0 0
07-08-2017 36 (15:20) 19 (00:00) 27.5 8.61 (13:10) 6.39 (13:10) 0 0 0 0 0
06-08-2017 37.1 (16:00) 17.8 (00:00) 27.4 10 (19:50) 6.94 (18:10) 0 0 0 0 0
05-08-2017 36 (17:20) 20.8 (00:00) 28.4 9.72 (19:00) 7.22 (19:00) 0 0 0 0 0
04-08-2017 39.9 (13:30) 18.9 (00:00) 29.4 8.61 (16:00) 7.22 (16:10) 0 0 0 0 0
03-08-2017 38.1 (18:00) 15.4 (00:00) 26.7 8.89 (16:30) 6.67 (16:50) 0 0 0 0 0
02-08-2017 34.3 (15:50) 17.2 (00:00) 25.8 10 (17:00) 7.5 (17:00) 0 0 0 0 0
01-08-2017 31.7 (16:20) 18.9 (00:00) 25.3 9.17 (17:10) 6.94 (19:40) 0 0 0 0 0
31-07-2017 34 (16:00) 15.5 (00:00) 24.8 10.83 (18:20) 7.78 (18:20) 0 0 0 0 0
30-07-2017 34.9 (14:30) 17.2 (00:00) 26.1 9.17 (17:20) 6.94 (18:30) 0 0 0 0 0
29-07-2017 32.2 (15:20) 13.2 (00:00) 22.7 8.89 (17:50) 6.67 (18:30) 0 0 0 0 0
28-07-2017 34.4 (15:00) 15.8 (00:00) 25.1 9.44 (19:10) 7.22 (18:40) 0 0 0 0 0
27-07-2017 31.5 (16:20) 15 (00:00) 23.3 9.44 (18:50) 7.5 (17:10) 0 0 0 0 0
26-07-2017 29.4 (17:40) 16.7 (00:00) 23.1 8.89 (11:00) 5.83 (16:20) 0 0 0 0 0
25-07-2017 32.8 (12:10) 16.6 (00:00) 24.7 8.89 (18:50) 6.94 (18:40) 0 0 0 0 0
24-07-2017 35.4 (17:10) 14.9 (00:00) 25.2 10.83 (19:00) 7.78 (19:00) 0 0 0 0 0
23-07-2017 32.4 (16:00) 13 (00:00) 22.7 10 (20:10) 7.22 (16:20) 0 0 0 0 0

Gráficas

Temp. máximas Temp. mínimas Temp. medias Precipitaciones Rachas de viento máximas Velocidades máximas media en intervalos de 10 minutos

Datos horarios

Fecha y hora oficial Temperatura (ºC) Velocidad del viento (km/h) Dirección del viento Racha (km/h) Dirección de racha Precipitación (mm) Presión (hPa) Tendencia (hPa) Humedad (%)
2017-08-21 23:00:00 24 13 Oeste 20 Oeste 0 -- -- 85
2017-08-21 22:00:00 24.7 12 Oeste 25 Sudoeste 0 -- -- 80
2017-08-21 21:00:00 26.6 17 Oeste 25 Oeste 0 -- -- 73
2017-08-21 20:00:00 29.2 18 Oeste 30 Oeste 0 -- -- 62
2017-08-21 19:00:00 30.7 22 Oeste 31 Sudoeste 0 -- -- 58
2017-08-21 18:00:00 32.3 23 Oeste 32 Oeste 0 -- -- 52
2017-08-21 17:00:00 33.7 22 Oeste 31 Sudoeste 0 -- -- 48
2017-08-21 16:00:00 35.5 20 Sudoeste 36 Sudoeste 0 -- -- 43
2017-08-21 15:00:00 36.4 21 Sudoeste 33 Sudoeste 0 -- -- 36
2017-08-21 14:00:00 36.9 9 Sudeste 27 Sur 0 -- -- 32
2017-08-21 13:00:00 34.9 10 Sur 19 Sur 0 -- -- 38
2017-08-21 12:00:00 32.8 6 Sudeste 23 Este 0 -- -- 41
2017-08-21 11:00:00 30.1 10 Este 21 Sudeste 0 -- -- 49
2017-08-21 10:00:00 25.4 6 Este 15 Sudeste 0 -- -- 72
2017-08-21 09:00:00 20 3 Nordeste 6 Nordeste 0 -- -- 95
2017-08-21 08:00:00 17.8 2 Este 5 Norte 0 -- -- 89
2017-08-21 07:00:00 18.9 0 Calma 5 Norte 0 -- -- 90
2017-08-21 06:00:00 19.6 4 Nordeste 6 Nordeste 0 -- -- 89
2017-08-21 05:00:00 21.5 3 Norte 14 Norte 0 -- -- 86
2017-08-21 04:00:00 21 5 Norte 10 Norte 0 -- -- 86
2017-08-21 03:00:00 22.4 6 Noroeste 12 Noroeste 0 -- -- 85
2017-08-21 02:00:00 23 4 Noroeste 12 Noroeste 0 -- -- 83
2017-08-21 01:00:00 23.8 6 Norte 15 Noroeste 0 -- -- 81
2017-08-21 00:00:00 24.5 3 Oeste 7 Oeste 0 -- -- 75
2017-08-20 23:00:00 25.4 5 Oeste 15 Oeste 0 -- -- 76
2017-08-20 22:00:00 26.2 10 Sudoeste 22 Sudoeste 0 -- -- 75
2017-08-20 21:00:00 27.6 14 Oeste 29 Oeste 0 -- -- 69
2017-08-20 20:00:00 30.1 21 Oeste 29 Oeste 0 -- -- 61
2017-08-20 19:00:00 32.5 21 Sudoeste 29 Sudoeste 0 -- -- 52
2017-08-20 18:00:00 33.9 23 Oeste 32 Sudoeste 0 -- -- 49
2017-08-20 17:00:00 35.6 23 Sudoeste 29 Sudoeste 0 -- -- 45
2017-08-20 16:00:00 37.3 20 Sudoeste 28 Sudoeste 0 -- -- 37
2017-08-20 15:00:00 38.3 16 Sudoeste 28 Sur 0 -- -- 33
2017-08-20 14:00:00 36.8 10 Sur 21 Sur 0 -- -- 36
2017-08-20 13:00:00 35.2 7 Sudeste 19 Este 0 -- -- 38
2017-08-20 12:00:00 32.6 8 Este 25 Nordeste 0 -- -- 43
2017-08-20 11:00:00 29.6 11 Nordeste 21 Nordeste 0 -- -- 53
2017-08-20 10:00:00 25.3 10 Nordeste 15 Nordeste 0 -- -- 65
2017-08-20 09:00:00 20.6 5 Nordeste 7 Nordeste 0 -- -- 82
2017-08-20 08:00:00 18.2 3 Nordeste 5 Nordeste 0 -- -- 87
2017-08-20 07:00:00 17.4 3 Nordeste 6 Nordeste 0 -- -- 84
2017-08-20 06:00:00 18.1 3 Nordeste 8 Este 0 -- -- 84
2017-08-20 05:00:00 18.3 3 Este 5 Este 0 -- -- 84
2017-08-20 04:00:00 19.6 2 Noroeste 10 Noroeste 0 -- -- 81
2017-08-20 03:00:00 19.8 5 Noroeste 8 Noroeste 0 -- -- 85
2017-08-20 02:00:00 20.7 4 Noroeste 7 Noroeste 0 -- -- 83
2017-08-20 01:00:00 20.9 2 Noroeste 4 Noroeste 0 -- -- 82
2017-08-20 00:00:00 22.2 3 Noroeste 9 Oeste 0 -- -- 82
2017-08-19 23:00:00 22.6 6 Oeste 9 Oeste 0 -- -- 80
2017-08-19 22:00:00 24.3 6 Oeste 16 Sudoeste 0 -- -- 76
2017-08-19 21:00:00 26.6 13 Sudoeste 25 Sudoeste 0 -- -- 69
2017-08-19 20:00:00 29.4 19 Sudoeste 27 Sudoeste 0 -- -- 56
2017-08-19 19:00:00 31 21 Sudoeste 30 Sudoeste 0 -- -- 50
2017-08-19 18:00:00 32.1 22 Sudoeste 30 Sudoeste 0 -- -- 46
2017-08-19 17:00:00 32.6 22 Sudoeste 30 Sudoeste 0 -- -- 44
2017-08-19 16:00:00 33.1 22 Sudoeste 30 Sudoeste 0 -- -- 42
2017-08-19 15:00:00 33.1 22 Sudoeste 30 Sudoeste 0 -- -- 44
2017-08-19 14:00:00 35.1 18 Sudoeste 24 Sudoeste 0 -- -- 35
2017-08-19 13:00:00 34.4 11 Sudoeste 23 Sur 0 -- -- 37
2017-08-19 12:00:00 32 5 Sur 12 Sudoeste 0 -- -- 45
2017-08-19 11:00:00 26.9 3 Noroeste 9 Nordeste 0 -- -- 63
2017-08-19 10:00:00 22.6 5 Norte 9 Nordeste 0 -- -- 83
2017-08-19 09:00:00 18.2 3 Norte 5 Norte 0 -- -- 93
2017-08-19 08:00:00 17 2 Norte 8 Nordeste 0 -- -- 86
2017-08-19 07:00:00 17.9 2 Norte 11 Nordeste 0 -- -- 86
2017-08-19 06:00:00 20.2 6 Este 15 Norte 0 -- -- 74
2017-08-19 05:00:00 20.6 6 Oeste 8 Oeste 0 -- -- 94
2017-08-19 04:00:00 20.5 8 Sudoeste 9 Sudoeste 0 -- -- 90
2017-08-19 03:00:00 21.1 6 Sudoeste 13 Sudoeste 0 -- -- 88
2017-08-19 02:00:00 21.5 10 Sudoeste 15 Sudoeste 0 -- -- 89
2017-08-19 01:00:00 20.7 7 Sudoeste 10 Sudoeste 0 -- -- 85
2017-08-19 00:00:00 22 8 Sur 9 Sur 0 -- -- 82
2017-08-18 23:00:00 23.3 2 Sudoeste 17 Oeste 0 -- -- 75
2017-08-18 22:00:00 24.5 9 Oeste 17 Oeste 0 -- -- 71
2017-08-18 21:00:00 27.1 13 Oeste 27 Oeste 0 -- -- 59
2017-08-18 20:00:00 30.1 21 Oeste 30 Oeste 0 -- -- 49
2017-08-18 19:00:00 32.4 22 Oeste 30 Oeste 0 -- -- 44
2017-08-18 18:00:00 33.7 24 Oeste 31 Oeste 0 -- -- 41
2017-08-18 17:00:00 33.2 24 Oeste 33 Oeste 0 -- -- 43
2017-08-18 16:00:00 33.3 23 Oeste 31 Oeste 0 -- -- 44
2017-08-18 15:00:00 33.2 21 Sudoeste 26 Oeste 0 -- -- 46
2017-08-18 14:00:00 33.4 16 Sudoeste 23 Sudoeste 0 -- -- 44
2017-08-18 13:00:00 33.2 12 Sudoeste 19 Oeste 0 -- -- 45
2017-08-18 12:00:00 31 7 Sudoeste 14 Sudoeste 0 -- -- 51
2017-08-18 11:00:00 28.1 5 Noroeste 13 Noroeste 0 -- -- 62
2017-08-18 10:00:00 22.4 0 Calma 6 Nordeste 0 -- -- 86
2017-08-18 09:00:00 18.7 2 Norte 5 Nordeste 0 -- -- 96
2017-08-18 08:00:00 17.3 0 Calma 6 Sur 0 -- -- 95
2017-08-18 07:00:00 17.4 0 Calma 5 Sudeste 0 -- -- 94
2017-08-18 06:00:00 17.5 0 Calma 7 Sudeste 0 -- -- 92
2017-08-18 05:00:00 18 4 Nordeste 6 Nordeste 0 -- -- 90
2017-08-18 04:00:00 20.5 3 Oeste 10 Oeste 0 -- -- 95
2017-08-18 03:00:00 20.3 9 Oeste 12 Sur 0 -- -- 92
2017-08-18 02:00:00 20.3 11 Sur 13 Sur 0 -- -- 92
2017-08-18 01:00:00 20.7 7 Sudoeste 8 Sudoeste 0 -- -- 92
2017-08-18 00:00:00 22 3 Sudoeste 12 Oeste 0 -- -- 90
2017-08-17 23:00:00 22.7 8 Sudoeste 15 Oeste 0 -- -- 89
2017-08-17 22:00:00 23.9 9 Oeste 24 Oeste 0 -- -- 86
2017-08-17 21:00:00 25.8 17 Sudoeste 26 Sudoeste 0 -- -- 79
2017-08-17 20:00:00 30.3 15 Oeste 25 Oeste 0 -- -- 56
2017-08-17 19:00:00 31 19 Oeste 29 Oeste 0 -- -- 54
2017-08-17 18:00:00 31.4 21 Oeste 31 Sudoeste 0 -- -- 54
2017-08-17 17:00:00 32.2 22 Oeste 28 Sudoeste 0 -- -- 50
2017-08-17 16:00:00 32.2 21 Oeste 26 Sudoeste 0 -- -- 50
2017-08-17 15:00:00 32.7 15 Sudoeste 22 Oeste 0 -- -- 47
2017-08-17 14:00:00 31.1 12 Sudoeste 23 Oeste 0 -- -- 51
2017-08-17 13:00:00 29 14 Sudoeste 24 Sudoeste 0 -- -- 61
2017-08-17 12:00:00 28.2 17 Sudoeste 25 Sudoeste 0 -- -- 65
2017-08-17 11:00:00 26.5 14 Sur 22 Sur 0 -- -- 67
2017-08-17 10:00:00 22 6 Sudeste 14 Sur 0 -- -- 89
2017-08-17 09:00:00 17.4 4 Este 13 Nordeste 0 -- -- 86
2017-08-17 08:00:00 16.2 6 Nordeste 10 Norte 0 -- -- 83
2017-08-17 07:00:00 16.5 3 Norte 9 Nordeste 0 -- -- 81
2017-08-17 06:00:00 17 5 Nordeste 8 Norte 0 -- -- 77
2017-08-17 05:00:00 18.5 3 Norte 14 Norte 0 -- -- 77
2017-08-17 04:00:00 18.2 6 Nordeste 12 Nordeste 0 -- -- 73
2017-08-17 03:00:00 18.7 7 Nordeste 14 Nordeste 0 -- -- 64
2017-08-17 02:00:00 22.4 3 Noroeste 13 Oeste 0 -- -- 50
2017-08-17 01:00:00 21.8 9 Oeste 15 Sudoeste 0 -- -- 80
2017-08-17 00:00:00 22.6 14 Sudoeste 17 Sudoeste 0 -- -- 78
2017-08-16 23:00:00 22.4 13 Sudoeste 16 Sudoeste 0 -- -- 78
2017-08-16 22:00:00 23.6 12 Sudoeste 17 Oeste 0 -- -- 74
2017-08-16 21:00:00 26.1 15 Oeste 28 Oeste 0 -- -- 62
2017-08-16 20:00:00 28.8 21 Oeste 30 Sudoeste 0 -- -- 52
2017-08-16 19:00:00 31.1 24 Oeste 32 Oeste 0 -- -- 41
2017-08-16 18:00:00 34.4 22 Sudoeste 31 Sudoeste 0 -- -- 34
2017-08-16 17:00:00 35.7 23 Sudoeste 30 Oeste 0 -- -- 25
2017-08-16 16:00:00 35 22 Sudoeste 30 Sudoeste 0 -- -- 23
2017-08-16 15:00:00 34.1 22 Sudoeste 30 Sudoeste 0 -- -- 27
2017-08-16 14:00:00 33.8 20 Oeste 26 Sudoeste 0 -- -- 30
2017-08-16 13:00:00 34.5 12 Sudoeste 21 Sudoeste 0 -- -- 31
2017-08-16 12:00:00 31.5 5 Norte 12 Nordeste 0 -- -- 30
2017-08-16 11:00:00 28.2 5 Norte 10 Nordeste 0 -- -- 38
2017-08-16 10:00:00 23.7 5 Norte 12 Noroeste 0 -- -- 52
2017-08-16 09:00:00 17.5 2 Noroeste 10 Norte 0 -- -- 75
2017-08-16 08:00:00 16.4 4 Norte 9 Norte 0 -- -- 71
2017-08-16 07:00:00 17.2 6 Norte 10 Norte 0 -- -- 72
2017-08-16 06:00:00 16 3 Norte 7 Norte 0 -- -- 78
2017-08-16 05:00:00 17.9 2 Este 12 Norte 0 -- -- 72
2017-08-16 04:00:00 18.2 3 Norte 5 Nordeste 0 -- -- 72
2017-08-16 03:00:00 20.1 4 Este 13 Oeste 0 -- -- 66
2017-08-16 02:00:00 20.4 9 Oeste 12 Oeste 0 -- -- 89
2017-08-16 01:00:00 21.1 3 Oeste 14 Sudoeste 0 -- -- 82
2017-08-16 00:00:00 21.9 7 Sudoeste 17 Sudoeste 0 -- -- 84
2017-08-15 23:00:00 22.8 11 Sudoeste 21 Sudoeste 0 -- -- 82
2017-08-15 22:00:00 23.5 13 Sudoeste 23 Sudoeste 0 -- -- 82
2017-08-15 21:00:00 24.9 17 Sudoeste 34 Sudoeste 0 -- -- 77
2017-08-15 20:00:00 27.2 23 Sudoeste 37 Oeste 0 -- -- 65
2017-08-15 19:00:00 29.5 26 Sudoeste 35 Oeste 0 -- -- 49
2017-08-15 18:00:00 31.2 26 Oeste 34 Sudoeste 0 -- -- 41
2017-08-15 17:00:00 31.9 24 Sudoeste 33 Sudoeste 0 -- -- 46
2017-08-15 16:00:00 32.6 23 Sudoeste 32 Sudoeste 0 -- -- 47
2017-08-15 15:00:00 32.4 21 Oeste 31 Oeste 0 -- -- 44
2017-08-15 14:00:00 31.8 20 Sudoeste 28 Sudoeste 0 -- -- 48
2017-08-15 13:00:00 31 16 Sudoeste 23 Sudoeste 0 -- -- 49
2017-08-15 12:00:00 29.8 8 Oeste 18 Oeste 0 -- -- 51
2017-08-15 11:00:00 27.2 3 Norte 9 Nordeste 0 -- -- 56
2017-08-15 10:00:00 23.5 4 Noroeste 8 Norte 0 -- -- 63
2017-08-15 09:00:00 19.9 0 Calma 6 Noroeste 0 -- -- 83
2017-08-15 08:00:00 19.5 3 Noroeste 7 Noroeste 0 -- -- 87
2017-08-15 07:00:00 21.2 5 Noroeste 13 Noroeste 0 -- -- 87
2017-08-15 06:00:00 21.1 6 Oeste 10 Oeste 0 -- -- 90
2017-08-15 05:00:00 20.6 5 Oeste 8 Oeste 0 -- -- 90
2017-08-15 04:00:00 20.9 6 Sudoeste -- -- 0 -- -- 88
2017-08-15 03:00:00 21.8 7 Sudoeste 13 Sudoeste 0 -- -- 86
2017-08-15 02:00:00 22.5 8 Sudoeste 14 Sudoeste 0 -- -- 85
2017-08-15 01:00:00 23.1 9 Sudoeste 17 Sudoeste 0 -- -- 84
2017-08-15 00:00:00 23.4 13 Oeste 19 Oeste 0 -- -- 82
2017-08-14 23:00:00 23.7 15 Oeste 26 Oeste 0 -- -- 80
2017-08-14 22:00:00 24.2 17 Oeste 31 Oeste 0 -- -- 78
2017-08-14 21:00:00 25.7 20 Oeste 29 Oeste 0 -- -- 75
2017-08-14 20:00:00 28.7 20 Oeste 31 Oeste 0 -- -- 64
2017-08-14 19:00:00 29.6 24 Sudoeste 33 Oeste 0 -- -- 58
2017-08-14 18:00:00 31.5 24 Oeste 37 Sudoeste 0 -- -- 50
2017-08-14 17:00:00 32.5 26 Sudoeste 33 Sudoeste 0 -- -- 48
2017-08-14 16:00:00 33.6 24 Sudoeste 33 Oeste 0 -- -- 42
2017-08-14 15:00:00 34 21 Sudoeste 30 Sudoeste 0 -- -- 36
2017-08-14 14:00:00 34.4 5 Sur 20 Nordeste 0 -- -- 35
2017-08-14 13:00:00 32.8 6 Este 18 Nordeste 0 -- -- 37
2017-08-14 12:00:00 31.4 8 Este 20 Nordeste 0 -- -- 40
2017-08-14 11:00:00 29.1 6 Este 14 Este 0 -- -- 46
2017-08-14 10:00:00 24.4 7 Nordeste 12 Nordeste 0 -- -- 64
2017-08-14 09:00:00 19.5 4 Nordeste 9 Nordeste 0 -- -- 86
2017-08-14 08:00:00 17.7 6 Nordeste 13 Nordeste 0 -- -- 88
2017-08-14 07:00:00 15.7 4 Nordeste 9 Nordeste 0 -- -- 89
2017-08-14 06:00:00 17.8 4 Norte 10 Norte 0 -- -- 83
2017-08-14 05:00:00 19.2 6 Norte 12 Norte 0 -- -- 88
2017-08-14 04:00:00 17.6 4 Norte 6 Sudeste 0 -- -- 87
2017-08-14 03:00:00 18.2 2 Oeste 8 Nordeste 0 -- -- 85
2017-08-14 02:00:00 19.9 5 Nordeste 9 Oeste 0 -- -- 80
2017-08-14 01:00:00 22.2 5 Oeste 12 Oeste 0 -- -- 79
2017-08-14 00:00:00 23.1 8 Oeste 17 Noroeste 0 -- -- 75
2017-08-13 23:00:00 23.8 9 Oeste 17 Oeste 0 -- -- 75
2017-08-13 22:00:00 24.7 13 Oeste 24 Oeste 0 -- -- 71
2017-08-13 21:00:00 26.7 18 Oeste 28 Oeste 0 -- -- 61
2017-08-13 20:00:00 29 23 Oeste 31 Oeste 0 -- -- 53
2017-08-13 19:00:00 31.8 22 Sudoeste 29 Sudoeste 0 -- -- 45
2017-08-13 18:00:00 34.8 23 Sudoeste 29 Sudoeste 0 -- -- 34
2017-08-13 17:00:00 35.5 18 Oeste 27 Oeste 0 -- -- 31
2017-08-13 16:00:00 34.8 19 Sudoeste 27 Oeste 0 -- -- 32
2017-08-13 15:00:00 35 19 Sudoeste 28 Sudoeste 0 -- -- 32
2017-08-13 14:00:00 35.1 9 Este 22 Este 0 -- -- 27
2017-08-13 13:00:00 33.2 8 Este 20 Este 0 -- -- 30
2017-08-13 12:00:00 31.5 9 Este 25 Este 0 -- -- 35
2017-08-13 11:00:00 28.8 9 Nordeste 17 Nordeste 0 -- -- 41
2017-08-13 10:00:00 24.7 9 Nordeste 15 Nordeste 0 -- -- 56
2017-08-13 09:00:00 19.6 5 Norte 9 Norte 0 -- -- 79
2017-08-13 08:00:00 17.1 6 Nordeste 10 Nordeste 0 -- -- 86
2017-08-13 07:00:00 16 7 Nordeste 9 Nordeste 0 -- -- 85
2017-08-13 06:00:00 16 6 Nordeste 9 Norte 0 -- -- 86
2017-08-13 05:00:00 17.9 6 Norte 11 Norte 0 -- -- 88
2017-08-13 04:00:00 18.7 5 Noroeste 10 Noroeste 0 -- -- 84
2017-08-13 03:00:00 20.8 3 Noroeste 9 Noroeste 0 -- -- 79
2017-08-13 02:00:00 20.9 6 Oeste 9 Oeste 0 -- -- 82
2017-08-13 01:00:00 21 8 Oeste 10 Oeste 0 -- -- 73
2017-08-13 00:00:00 22.8 9 Oeste 15 Oeste 0 -- -- 64
2017-08-12 23:00:00 23.9 8 Oeste 15 Noroeste 0 -- -- 57
2017-08-12 22:00:00 26.8 4 Oeste 21 Sur 0 -- -- 46
2017-08-12 21:00:00 30.2 13 Sur 24 Sudoeste 0 -- -- 38
2017-08-12 20:00:00 32.9 17 Sudoeste 23 Sudoeste 0 -- -- 35
2017-08-12 19:00:00 33.1 16 Sudoeste 24 Sudoeste 0 -- -- 40
2017-08-12 18:00:00 33.3 21 Sudoeste 31 Sudoeste 0 -- -- 35
2017-08-12 17:00:00 33.4 23 Sudoeste 32 Sudoeste 0 -- -- 34
2017-08-12 16:00:00 34 21 Oeste 28 Oeste 0 -- -- 33
2017-08-12 15:00:00 34.6 21 Sudoeste 26 Sudoeste 0 -- -- 34
2017-08-12 14:00:00 34.4 6 Este 21 Sudeste 0 -- -- 27
2017-08-12 13:00:00 32.5 9 Nordeste 23 Este 0 -- -- 33
2017-08-12 12:00:00 31.5 9 Este 23 Nordeste 0 -- -- 35
2017-08-12 11:00:00 28.6 12 Nordeste 22 Nordeste 0 -- -- 45
2017-08-12 10:00:00 24.4 9 Nordeste 16 Nordeste 0 -- -- 64
2017-08-12 09:00:00 20.3 5 Nordeste 9 Norte 0 -- -- 85
2017-08-12 08:00:00 17.8 5 Nordeste 8 Nordeste 0 -- -- 91
2017-08-12 07:00:00 17 4 Nordeste 8 Nordeste 0 -- -- 89
2017-08-12 06:00:00 16.6 5 Nordeste 10 Norte 0 -- -- 86
2017-08-12 05:00:00 17.8 5 Norte 9 Norte 0 -- -- 87
2017-08-12 04:00:00 19.6 3 Noroeste 6 Noroeste 0 -- -- 86
2017-08-12 03:00:00 20.2 3 Noroeste 8 Oeste 0 -- -- 80
2017-08-12 02:00:00 21.2 5 Oeste 11 Sudoeste 0 -- -- 83
2017-08-12 01:00:00 21.2 10 Sudoeste 12 Sudoeste 0 -- -- 81
2017-08-12 00:00:00 23 9 Oeste 14 Oeste 0 -- -- 80
2017-08-11 23:00:00 23.8 8 Oeste 15 Oeste 0 -- -- 70
2017-08-11 22:00:00 25.3 9 Oeste 22 Oeste 0 -- -- 65
2017-08-11 21:00:00 27.8 17 Oeste 26 Sudoeste 0 -- -- 56
2017-08-11 20:00:00 30.5 19 Sudoeste 29 Oeste 0 -- -- 48
2017-08-11 19:00:00 31.5 23 Oeste 30 Sudoeste 0 -- -- 46
2017-08-11 18:00:00 32.4 24 Oeste 32 Oeste 0 -- -- 44
2017-08-11 17:00:00 32.8 24 Sudoeste 40 Sudoeste 0 -- -- 43
2017-08-11 16:00:00 35.4 10 Nordeste 26 Este 0 -- -- 31
2017-08-11 15:00:00 34.2 9 Nordeste 23 Nordeste 0 -- -- 36
2017-08-11 14:00:00 32.6 12 Este 24 Este 0 -- -- 39
2017-08-11 13:00:00 31 12 Nordeste 24 Nordeste 0 -- -- 44
2017-08-11 12:00:00 29.9 11 Nordeste 24 Nordeste 0 -- -- 51
2017-08-11 11:00:00 27.8 10 Nordeste 26 Nordeste 0 -- -- 58
2017-08-11 10:00:00 24.4 12 Nordeste 20 Nordeste 0 -- -- 68
2017-08-11 09:00:00 19.5 5 Nordeste 10 Nordeste 0 -- -- 92
2017-08-11 08:00:00 17 4 Este 7 Sudeste 0 -- -- 91
2017-08-11 07:00:00 18.6 2 Nordeste 13 Norte 0 -- -- 89
2017-08-11 06:00:00 19.4 6 Norte 15 Norte 0 -- -- 91
2017-08-11 05:00:00 18.5 8 Norte 14 Norte 0 -- -- 93
2017-08-11 04:00:00 18.3 3 Norte 6 Noroeste 0 -- -- 88
2017-08-11 03:00:00 19.2 3 Noroeste 7 Noroeste 0 -- -- 85
2017-08-11 02:00:00 20.6 5 Oeste 10 Oeste 0 -- -- 88
2017-08-11 01:00:00 21.2 6 Oeste 12 Oeste 0 -- -- 83
2017-08-11 00:00:00 21.9 8 Oeste 14 Oeste 0 -- -- 82
2017-08-10 23:00:00 22.6 8 Oeste 19 Oeste 0 -- -- 78
2017-08-10 22:00:00 23.4 11 Oeste 18 Sudoeste 0 -- -- 72
2017-08-10 21:00:00 26.4 14 Sudoeste 24 Oeste 0 -- -- 62
2017-08-10 20:00:00 29.8 18 Sudoeste 27 Sudoeste 0 -- -- 49
2017-08-10 19:00:00 31.4 20 Sudoeste 28 Sudoeste 0 -- -- 45
2017-08-10 18:00:00 31.6 21 Sudoeste 28 Oeste 0 -- -- 43
2017-08-10 17:00:00 35.3 15 Oeste 24 Este 0 -- -- 33
2017-08-10 16:00:00 35.3 8 Este 27 Nordeste 0 -- -- 26
2017-08-10 15:00:00 33.3 11 Nordeste 23 Nordeste 0 -- -- 30
2017-08-10 14:00:00 31.8 13 Este 27 Este 0 -- -- 32
2017-08-10 13:00:00 29.5 13 Este 35 Nordeste 0 -- -- 40
2017-08-10 12:00:00 27.4 15 Nordeste 28 Nordeste 0 -- -- 46
2017-08-10 11:00:00 24.7 12 Nordeste 24 Nordeste 0 -- -- 61
2017-08-10 10:00:00 20.6 7 Este 14 Este 0 -- -- 81
2017-08-10 09:00:00 16 5 Nordeste 11 Norte 0 -- -- 90
2017-08-10 08:00:00 14.1 4 Norte 10 Nordeste 0 -- -- 90
2017-08-10 07:00:00 14.8 4 Norte 11 Norte 0 -- -- 91
2017-08-10 06:00:00 14.5 0 Calma 9 Norte 0 -- -- 84
2017-08-10 05:00:00 15.5 3 Norte 9 Norte 0 -- -- 86
2017-08-10 04:00:00 16.5 5 Norte 11 Nordeste 0 -- -- 81
2017-08-10 03:00:00 16.1 3 Norte 8 Este 0 -- -- 73
2017-08-10 02:00:00 17.4 0 Calma 12 Noroeste 0 -- -- 69
2017-08-10 01:00:00 18.9 8 Oeste 13 Sudoeste 0 -- -- 75
2017-08-10 00:00:00 20 11 Oeste 18 Oeste 0 -- -- 83
2017-08-09 23:00:00 20.3 13 Sudoeste 18 Sudoeste 0 -- -- 85
2017-08-09 22:00:00 21.2 12 Sudoeste 26 Sudoeste 0 -- -- 80
2017-08-09 21:00:00 22.9 17 Sudoeste 30 Sudoeste 0 -- -- 72
2017-08-09 20:00:00 25 23 Sudoeste 37 Sudoeste 0 -- -- 59
2017-08-09 19:00:00 25.9 26 Sudoeste 39 Sudoeste 0 -- -- 55
2017-08-09 18:00:00 26.4 28 Sudoeste 37 Sudoeste 0 -- -- 51
2017-08-09 17:00:00 26.9 27 Sudoeste 38 Sudoeste 0 -- -- 50
2017-08-09 16:00:00 27.4 28 Sudoeste 39 Sudoeste 0 -- -- 46
2017-08-09 15:00:00 28 26 Sudoeste 35 Sudoeste 0 -- -- 41
2017-08-09 14:00:00 26.4 26 Sudoeste 35 Sudoeste 0 -- -- 43
2017-08-09 13:00:00 25.4 24 Sudoeste 30 Oeste 0 -- -- 45
2017-08-09 12:00:00 24.8 19 Sudoeste 24 Sudoeste 0 -- -- 45
2017-08-09 11:00:00 23.4 5 Oeste 15 Sudoeste 0 -- -- 47
2017-08-09 10:00:00 20 8 Oeste 21 Noroeste 0 -- -- 53
2017-08-09 09:00:00 15.8 5 Noroeste 11 Oeste 0 -- -- 67
2017-08-09 08:00:00 13.7 8 Oeste 13 Noroeste 0 -- -- 70
2017-08-09 07:00:00 14.8 8 Oeste 12 Oeste 0 -- -- 67
2017-08-09 06:00:00 17.5 3 Noroeste 15 Noroeste 0 -- -- 59
2017-08-09 05:00:00 18.7 8 Noroeste 18 Noroeste 0 -- -- 54
2017-08-09 04:00:00 20.1 9 Noroeste 18 Noroeste 0 -- -- 50
2017-08-09 03:00:00 21.7 10 Noroeste 25 Noroeste 0 -- -- 47
2017-08-09 02:00:00 22.6 13 Noroeste 23 Oeste 0 -- -- 45
2017-08-09 01:00:00 21.3 9 Oeste 21 Noroeste 0 -- -- 38
2017-08-09 00:00:00 20 9 Oeste 13 Oeste 0 -- -- 63
2017-08-08 23:00:00 21.6 11 Oeste 20 Oeste 0 -- -- 72
2017-08-08 22:00:00 23.1 15 Oeste 28 Oeste 0 -- -- 64
2017-08-08 21:00:00 25 21 Oeste 34 Oeste 0 -- -- 55
2017-08-08 20:00:00 27 27 Oeste 39 Oeste 0 -- -- 50
2017-08-08 19:00:00 28.5 29 Oeste 40 Oeste 0 -- -- 47
2017-08-08 18:00:00 30.2 30 Oeste 41 Oeste 0 -- -- 40
2017-08-08 17:00:00 33.7 26 Oeste 40 Oeste 0 -- -- 24
2017-08-08 16:00:00 33.3 28 Oeste 37 Oeste 0 -- -- 28
2017-08-08 15:00:00 33.7 26 Oeste 36 Oeste 0 -- -- 27
2017-08-08 14:00:00 33.7 9 Norte 23 Norte 0 -- -- 18
2017-08-08 13:00:00 31.8 6 Norte 21 Nordeste 0 -- -- 24
2017-08-08 12:00:00 29.5 7 Nordeste 16 Nordeste 0 -- -- 28
2017-08-08 11:00:00 26.9 9 Norte 17 Norte 0 -- -- 33
2017-08-08 10:00:00 23 8 Norte 21 Noroeste 0 -- -- 47
2017-08-08 09:00:00 19.9 10 Noroeste 22 Noroeste 0 -- -- 58
2017-08-08 08:00:00 17.8 10 Noroeste 15 Noroeste 0 -- -- 63
2017-08-08 07:00:00 18.4 6 Noroeste 12 Oeste 0 -- -- 55
2017-08-08 06:00:00 19.5 3 Oeste 7 Noroeste 0 -- -- 47
2017-08-08 05:00:00 21.8 3 Noroeste 12 Noroeste 0 -- -- 38
2017-08-08 04:00:00 23.8 5 Norte 16 Oeste 0 -- -- 38
2017-08-08 03:00:00 25.1 5 Noroeste 19 Noroeste 0 -- -- 36
2017-08-08 02:00:00 25.9 8 Noroeste 18 Noroeste 0 -- -- 31
2017-08-08 01:00:00 26.6 10 Noroeste 21 Noroeste 0 -- -- 28
2017-08-08 00:00:00 26.1 8 Noroeste 17 Oeste 0 -- -- 25
2017-08-07 23:00:00 25.9 11 Oeste 19 Oeste 0 -- -- 30
2017-08-07 22:00:00 26.9 16 Oeste 25 Oeste 0 -- -- 36
2017-08-07 21:00:00 28.4 18 Oeste 26 Oeste 0 -- -- 33
2017-08-07 20:00:00 30.2 19 Oeste 30 Oeste 0 -- -- 38
2017-08-07 19:00:00 31.1 21 Sudoeste 28 Sudoeste 0 -- -- 50
2017-08-07 18:00:00 32.3 22 Oeste 31 Oeste 0 -- -- 44
2017-08-07 17:00:00 34.2 21 Oeste 30 Sudoeste 0 -- -- 33
2017-08-07 16:00:00 35.4 19 Sudoeste 30 Sudoeste 0 -- -- 32
2017-08-07 15:00:00 35.8 18 Sudoeste 25 Oeste 0 -- -- 25
2017-08-07 14:00:00 33 17 Oeste 31 Sudoeste 0 -- -- 35
2017-08-07 13:00:00 33.7 19 Sudoeste 27 Sudoeste 0 -- -- 42
2017-08-07 12:00:00 32.4 17 Sudoeste 24 Sudoeste 0 -- -- 45
2017-08-07 11:00:00 30.9 11 Sur 30 Sur 0 -- -- 46
2017-08-07 10:00:00 25.8 4 Este 12 Este 0 -- -- 59
2017-08-07 09:00:00 20.7 6 Nordeste 8 Este 0 -- -- 82
2017-08-07 08:00:00 19.3 3 Noroeste 9 Este 0 -- -- 82
2017-08-07 07:00:00 20.6 3 Nordeste 12 Sudoeste 0 -- -- 80
2017-08-07 06:00:00 23.6 6 Oeste 22 Sudoeste 0 -- -- 68
2017-08-07 05:00:00 21.3 9 Sudoeste 15 Sudoeste 0 -- -- 79
2017-08-07 04:00:00 20.2 8 Sur 12 Sur 0 -- -- 72
2017-08-07 03:00:00 21.7 3 Sudeste 15 Sur 0 -- -- 57
2017-08-07 02:00:00 22.3 6 Sudeste 15 Sur 0 -- -- 54
2017-08-07 01:00:00 23.8 0 Calma 10 Este 0 -- -- 44
2017-08-07 00:00:00 26.7 4 Nordeste 23 Oeste 0 -- -- 30
2017-08-06 23:00:00 26 14 Oeste 21 Oeste 0 -- -- 39
2017-08-06 22:00:00 24.8 10 Oeste 20 Oeste 0 -- -- 52
2017-08-06 21:00:00 26.4 13 Oeste 33 Oeste 0 -- -- 51
2017-08-06 20:00:00 28.7 22 Oeste 36 Oeste 0 -- -- 44
2017-08-06 19:00:00 31.3 22 Oeste 33 Oeste 0 -- -- 40
2017-08-06 18:00:00 34.4 23 Oeste 33 Oeste 0 -- -- 30
2017-08-06 17:00:00 36.4 22 Oeste 30 Sudoeste 0 -- -- 24
2017-08-06 16:00:00 37.1 20 Oeste 27 Sudoeste 0 -- -- 25
2017-08-06 15:00:00 36 20 Oeste 27 Sudoeste 0 -- -- 29
2017-08-06 14:00:00 35.5 16 Sudoeste 28 Sudoeste 0 -- -- 32
2017-08-06 13:00:00 36.4 12 Sudoeste 23 Sudoeste 0 -- -- 32
2017-08-06 12:00:00 34.1 5 Nordeste 13 Este 0 -- -- 30
2017-08-06 11:00:00 30.2 6 Nordeste 13 Nordeste 0 -- -- 36
2017-08-06 10:00:00 25.1 5 Nordeste 13 Norte 0 -- -- 48
2017-08-06 09:00:00 20.1 2 Nordeste 12 Noroeste 0 -- -- 68
2017-08-06 08:00:00 18.2 0 Calma 11 Noroeste 0 -- -- 67
2017-08-06 07:00:00 19.9 3 Norte 13 Noroeste 0 -- -- 62
2017-08-06 06:00:00 20.6 5 Noroeste 10 Noroeste 0 -- -- 60
2017-08-06 05:00:00 20.2 6 Oeste 10 Oeste 0 -- -- 63
2017-08-06 04:00:00 19.7 6 Oeste 8 Sudoeste 0 -- -- 71
2017-08-06 03:00:00 21 0 Calma 4 Sudoeste 0 -- -- 75
2017-08-06 02:00:00 22.6 3 Oeste 11 Sudoeste 0 -- -- 77
2017-08-06 01:00:00 23.7 9 Sudoeste 16 Sudoeste 0 -- -- 77
2017-08-06 00:00:00 24.2 8 Oeste 15 Sudoeste 0 -- -- 75
2017-08-05 23:00:00 24.8 12 Sudoeste 16 Oeste 0 -- -- 75
2017-08-05 22:00:00 26.1 13 Sudoeste 17 Oeste 0 -- -- 69
2017-08-05 21:00:00 29 14 Oeste 26 Oeste 0 -- -- 52
2017-08-05 20:00:00 31 21 Oeste 31 Oeste 0 -- -- 44
2017-08-05 19:00:00 31.3 26 Oeste 35 Sudoeste 0 -- -- 49
2017-08-05 18:00:00 35.8 22 Sudoeste 28 Sudoeste 0 -- -- 31
2017-08-05 17:00:00 35.5 23 Sudoeste 30 Sudoeste 0 -- -- 26
2017-08-05 16:00:00 35.5 22 Sudoeste 31 Sudoeste 0 -- -- 28
2017-08-05 15:00:00 35.4 22 Sudoeste 31 Sudoeste 0 -- -- 31
2017-08-05 14:00:00 35.6 21 Sudoeste 28 Sudoeste 0 -- -- 31
2017-08-05 13:00:00 35.9 19 Sudoeste 27 Sudoeste 0 -- -- 27
2017-08-05 12:00:00 35.7 14 Sur 20 Sur 0 -- -- 35
2017-08-05 11:00:00 31.8 2 Sudoeste 6 Nordeste 0 -- -- 40
2017-08-05 10:00:00 27.4 0 Calma 9 Noroeste 0 -- -- 50
2017-08-05 09:00:00 23.4 3 Noroeste 10 Sudoeste 0 -- -- 64
2017-08-05 08:00:00 21 4 Sudoeste 6 Sudoeste 0 -- -- 85
2017-08-05 07:00:00 21 5 Sudoeste 7 Sur 0 -- -- 79
2017-08-05 06:00:00 21.8 6 Sur 8 Sur 0 -- -- 72
2017-08-05 05:00:00 22.7 5 Oeste 8 Oeste 0 -- -- 74
2017-08-05 04:00:00 23 5 Oeste 6 Oeste 0 -- -- 80
2017-08-05 03:00:00 24 5 Sudoeste 13 Sudoeste 0 -- -- 74
2017-08-05 02:00:00 25.1 10 Oeste 15 Sudoeste 0 -- -- 71
2017-08-05 01:00:00 25.9 13 Sudoeste 16 Sudoeste 0 -- -- 62
2017-08-05 00:00:00 27.5 12 Oeste 19 Oeste 0 -- -- 51
2017-08-04 23:00:00 27.1 14 Oeste 18 Oeste 0 -- -- 55
2017-08-04 22:00:00 27.5 14 Oeste 21 Oeste 0 -- -- 57
2017-08-04 21:00:00 31.1 16 Oeste 28 Oeste 0 -- -- 45
2017-08-04 20:00:00 34.9 21 Oeste 27 Oeste 0 -- -- 35
2017-08-04 19:00:00 37.8 21 Sudoeste 26 Oeste 0 -- -- 33
2017-08-04 18:00:00 38.1 20 Oeste 28 Sudoeste 0 -- -- 32
2017-08-04 17:00:00 38.1 22 Sudoeste 31 Sudoeste 0 -- -- 32
2017-08-04 16:00:00 37.4 23 Sudoeste 31 Sudoeste 0 -- -- 31
2017-08-04 15:00:00 37.1 19 Sudoeste 26 Sudoeste 0 -- -- 33
2017-08-04 14:00:00 38.4 15 Sudoeste 22 Sudoeste 0 -- -- 32
2017-08-04 13:00:00 38.5 8 Nordeste 17 Nordeste 0 -- -- 27
2017-08-04 12:00:00 36.2 8 Nordeste 23 Nordeste 0 -- -- 31
2017-08-04 11:00:00 33 13 Nordeste 22 Nordeste 0 -- -- 38
2017-08-04 10:00:00 28.1 8 Nordeste 16 Nordeste 0 -- -- 44
2017-08-04 09:00:00 21.8 5 Nordeste 9 Norte 0 -- -- 69
2017-08-04 08:00:00 18.9 5 Nordeste 15 Noroeste 0 -- -- 67
2017-08-04 07:00:00 22.3 10 Norte 16 Norte 0 -- -- 62
2017-08-04 06:00:00 23.3 8 Norte 14 Norte 0 -- -- 57
2017-08-04 05:00:00 21.5 5 Norte 11 Norte 0 -- -- 57
2017-08-04 04:00:00 20.3 5 Norte 11 Nordeste 0 -- -- 61
2017-08-04 03:00:00 24.4 5 Norte 12 Norte 0 -- -- 51
2017-08-04 02:00:00 22.1 4 Oeste 8 Oeste 0 -- -- 63
2017-08-04 01:00:00 23.7 4 Oeste 13 Oeste 0 -- -- 51
2017-08-04 00:00:00 25 13 Oeste 23 Oeste 0 -- -- 53
2017-08-03 23:00:00 25.8 15 Oeste 20 Oeste 0 -- -- 51
2017-08-03 22:00:00 27 15 Oeste 25 Oeste 0 -- -- 46
2017-08-03 21:00:00 29.6 15 Oeste 27 Oeste 0 -- -- 38
2017-08-03 20:00:00 33 17 Oeste 25 Oeste 0 -- -- 35
2017-08-03 19:00:00 35.5 21 Oeste 30 Oeste 0 -- -- 27
2017-08-03 18:00:00 38.1 21 Oeste 31 Sudoeste 0 -- -- 23
2017-08-03 17:00:00 37.8 24 Oeste 32 Oeste 0 -- -- 21
2017-08-03 16:00:00 37.2 22 Oeste 29 Oeste 0 -- -- 21
2017-08-03 15:00:00 35.4 20 Sudoeste 28 Sudoeste 0 -- -- 27
2017-08-03 14:00:00 36.9 19 Sudoeste 25 Sudoeste 0 -- -- 28
2017-08-03 13:00:00 35.5 8 Este 16 Este 0 -- -- 24
2017-08-03 12:00:00 32.6 8 Nordeste 16 Este 0 -- -- 28
2017-08-03 11:00:00 28.6 7 Nordeste 14 Nordeste 0 -- -- 38
2017-08-03 10:00:00 23.8 8 Nordeste 13 Nordeste 0 -- -- 43
2017-08-03 09:00:00 19.9 4 Norte 13 Norte 0 -- -- 55
2017-08-03 08:00:00 16.3 5 Norte 8 Norte 0 -- -- 70
2017-08-03 07:00:00 16.6 2 Norte 9 Nordeste 0 -- -- 61
2017-08-03 06:00:00 16.8 5 Nordeste 8 Nordeste 0 -- -- 64
2017-08-03 05:00:00 20.9 4 Este 19 Noroeste 0 -- -- 51
2017-08-03 04:00:00 20.1 6 Noroeste 12 Noroeste 0 -- -- 55
2017-08-03 03:00:00 19 6 Oeste 8 Oeste 0 -- -- 78
2017-08-03 02:00:00 19.5 7 Oeste 10 Oeste 0 -- -- 83
2017-08-03 01:00:00 21.1 9 Sudoeste 18 Oeste 0 -- -- 74
2017-08-03 00:00:00 22.1 13 Oeste 17 Oeste 0 -- -- 59
2017-08-02 23:00:00 23.1 13 Oeste 23 Oeste 0 -- -- 58
2017-08-02 22:00:00 23.4 16 Oeste 28 Oeste 0 -- -- 57
2017-08-02 21:00:00 25.5 20 Oeste 31 Oeste 0 -- -- 50
2017-08-02 20:00:00 27.6 24 Oeste 33 Oeste 0 -- -- 47
2017-08-02 19:00:00 30.1 24 Oeste 33 Oeste 0 -- -- 45
2017-08-02 18:00:00 32.7 26 Oeste 34 Sudoeste 0 -- -- 30
2017-08-02 17:00:00 33.8 27 Oeste 36 Oeste 0 -- -- 26
2017-08-02 16:00:00 34.1 26 Oeste 33 Oeste 0 -- -- 26
2017-08-02 15:00:00 33.3 26 Sudoeste 33 Sudoeste 0 -- -- 26
2017-08-02 14:00:00 32.4 23 Sudoeste 29 Oeste 0 -- -- 31
2017-08-02 13:00:00 32.6 16 Sudoeste 23 Sudoeste 0 -- -- 31
2017-08-02 12:00:00 30.6 5 Norte 17 Nordeste 0 -- -- 28
2017-08-02 11:00:00 27.2 4 Nordeste 12 Norte 0 -- -- 36
2017-08-02 10:00:00 23.5 6 Norte 12 Norte 0 -- -- 44
2017-08-02 09:00:00 19.4 5 Norte 13 Norte 0 -- -- 58
2017-08-02 08:00:00 17.3 7 Noroeste 14 Noroeste 0 -- -- 63
2017-08-02 07:00:00 17.2 7 Noroeste 15 Noroeste 0 -- -- 63
2017-08-02 06:00:00 17.8 8 Noroeste 12 Noroeste 0 -- -- 60
2017-08-02 05:00:00 19.1 7 Noroeste 13 Noroeste 0 -- -- 55
2017-08-02 04:00:00 20.3 7 Noroeste 14 Noroeste 0 -- -- 52
2017-08-02 03:00:00 21.7 4 Noroeste 17 Noroeste 0 -- -- 49
2017-08-02 02:00:00 21.4 8 Noroeste 16 Noroeste 0 -- -- 51
2017-08-02 01:00:00 20.8 6 Oeste 13 Noroeste 0 -- -- 61
2017-08-02 00:00:00 21.7 11 Oeste 18 Sudoeste 0 -- -- 81
2017-08-01 23:00:00 21.7 11 Sudoeste 15 Sudoeste 0 -- -- 73
2017-08-01 22:00:00 23.3 12 Sudoeste 20 Sudoeste 0 -- -- 65
2017-08-01 21:00:00 25.4 15 Sudoeste 30 Oeste 0 -- -- 55
2017-08-01 20:00:00 26.8 25 Sudoeste 33 Sudoeste 0 -- -- 50
2017-08-01 19:00:00 28.1 23 Sudoeste 32 Oeste 0 -- -- 52
2017-08-01 18:00:00 29.7 22 Sudoeste 33 Sudoeste 0 -- -- 45
2017-08-01 17:00:00 31.7 19 Sudoeste 29 Oeste 0 -- -- 29
2017-08-01 16:00:00 30.8 15 Sudoeste 26 Oeste 0 -- -- 31
2017-08-01 15:00:00 29.9 14 Sudoeste 24 Sudoeste 0 -- -- 37
2017-08-01 14:00:00 29.1 13 Sudoeste 24 Sudoeste 0 -- -- 38
2017-08-01 13:00:00 25.9 3 Sudoeste 9 Nordeste 0 -- -- 43
2017-08-01 12:00:00 24.1 5 Norte 10 Norte 0 -- -- 47
2017-08-01 11:00:00 22.4 3 Noroeste 11 Oeste 0 -- -- 51
2017-08-01 10:00:00 21.4 6 Norte 15 Noroeste 0 -- -- 55
2017-08-01 09:00:00 20.3 6 Noroeste 14 Noroeste 0 -- -- 59
2017-08-01 08:00:00 19.3 5 Noroeste 11 Noroeste 0 -- -- 63
2017-08-01 07:00:00 19.5 3 Noroeste 9 Noroeste 0 -- -- 64
2017-08-01 06:00:00 18.9 5 Sudoeste 14 Sudeste 0 -- -- 62
2017-08-01 05:00:00 20 3 Sur 10 Noroeste 0 -- -- 58
2017-08-01 04:00:00 20.9 6 Norte 12 Noroeste 0 -- -- 53
2017-08-01 03:00:00 21.2 4 Oeste 12 Oeste 0 -- -- 48
2017-08-01 02:00:00 20.9 5 Noroeste 11 Oeste 0 -- -- 48
2017-08-01 01:00:00 21.2 5 Oeste 8 Oeste 0 -- -- 61
2017-08-01 00:00:00 22.7 2 Sudoeste 15 Oeste 0 -- -- 71
2017-07-31 23:00:00 23.7 10 Oeste 23 Oeste 0 -- -- 65
2017-07-31 22:00:00 23.4 16 Oeste 26 Sudoeste 0 -- -- 66
2017-07-31 21:00:00 23.6 17 Oeste 33 Oeste 0 -- -- 62
2017-07-31 20:00:00 25.7 28 Oeste 36 Oeste 0 -- -- 58
2017-07-31 19:00:00 27.4 28 Sudoeste 39 Oeste 0 -- -- 58
2017-07-31 18:00:00 29.6 27 Oeste 35 Sudoeste 0 -- -- 46
2017-07-31 17:00:00 32.7 24 Sudoeste 32 Oeste 0 -- -- 30
2017-07-31 16:00:00 34 23 Sudoeste 31 Sudoeste 0 -- -- 22
2017-07-31 15:00:00 33 21 Sudoeste 31 Sudoeste 0 -- -- 29
2017-07-31 14:00:00 31.6 16 Sudoeste 24 Oeste 0 -- -- 33
2017-07-31 13:00:00 30.2 13 Sudoeste 25 Sudoeste 0 -- -- 44
2017-07-31 12:00:00 29.3 13 Sudoeste 24 Sudoeste 0 -- -- 53
2017-07-31 11:00:00 27.3 4 Nordeste 8 Norte 0 -- -- 44
2017-07-31 10:00:00 23.2 3 Noroeste 11 Noroeste 0 -- -- 51
2017-07-31 09:00:00 20.1 5 Noroeste 15 Oeste 0 -- -- 62
2017-07-31 08:00:00 15.8 8 Oeste 10 Oeste 0 -- -- 76
2017-07-31 07:00:00 15.9 3 Sur 8 Sudeste 0 -- -- 75
2017-07-31 06:00:00 16.8 0 Calma 8 Sudeste 0 -- -- 72
2017-07-31 05:00:00 17.1 3 Sur 4 Sudeste 0 -- -- 73
2017-07-31 04:00:00 19.3 2 Oeste 8 Oeste 0 -- -- 69
2017-07-31 03:00:00 20.3 6 Sur 9 Sudoeste 0 -- -- 78
2017-07-31 02:00:00 21.7 7 Sudoeste 13 Sudoeste 0 -- -- 79
2017-07-31 01:00:00 21.8 8 Sudoeste 16 Sudoeste 0 -- -- 82
2017-07-31 00:00:00 21.8 12 Sudoeste 15 Sudoeste 0 -- -- 85
2017-07-30 23:00:00 22.9 9 Sudoeste 15 Sudoeste 0 -- -- 81
2017-07-30 22:00:00 24.6 11 Sudoeste 22 Sudoeste 0 -- -- 74
2017-07-30 21:00:00 27 16 Sudoeste 27 Sudoeste 0 -- -- 64
2017-07-30 20:00:00 29.2 21 Sudoeste 31 Sudoeste 0 -- -- 54
2017-07-30 19:00:00 30.3 22 Sudoeste 32 Sudoeste 0 -- -- 50
2017-07-30 18:00:00 31.8 23 Sudoeste 33 Sudoeste 0 -- -- 46
2017-07-30 17:00:00 32.3 21 Sudoeste 29 Sudoeste 0 -- -- 45
2017-07-30 16:00:00 32 22 Sudoeste 31 Sudoeste 0 -- -- 57
2017-07-30 15:00:00 33.3 22 Sudoeste 29 Sudoeste 0 -- -- 52
2017-07-30 14:00:00 34.3 13 Sur 20 Sur 0 -- -- 47
2017-07-30 13:00:00 32.5 8 Sur 18 Oeste 0 -- -- 54
2017-07-30 12:00:00 30.4 9 Sudoeste 18 Sudoeste 0 -- -- 61
2017-07-30 11:00:00 28 8 Sudoeste 17 Oeste 0 -- -- 67
2017-07-30 10:00:00 23.4 3 Norte 9 Este 0 -- -- 75
2017-07-30 09:00:00 20 4 Este 10 Norte 0 -- -- 87
2017-07-30 08:00:00 17.7 6 Norte 10 Norte 0 -- -- 89
2017-07-30 07:00:00 17.7 4 Noroeste 8 Noroeste 0 -- -- 85
2017-07-30 06:00:00 18.1 0 Calma 7 Nordeste 0 -- -- 83
2017-07-30 05:00:00 20.3 3 Norte 6 Nordeste 0 -- -- 83
2017-07-30 04:00:00 21.2 3 Sudoeste 9 Sudoeste 0 -- -- 87
2017-07-30 03:00:00 21.7 6 Sudoeste 9 Sudoeste 0 -- -- 84
2017-07-30 02:00:00 22.7 4 Sudoeste 14 Sudoeste 0 -- -- 81
2017-07-30 01:00:00 23.5 12 Sudoeste 16 Sudoeste 0 -- -- 78
2017-07-30 00:00:00 23.3 9 Oeste 12 Oeste 0 -- -- 73
2017-07-29 23:00:00 24 9 Oeste 16 Sudoeste 0 -- -- 75
2017-07-29 22:00:00 25 11 Oeste 22 Sudoeste 0 -- -- 73
2017-07-29 21:00:00 27.2 15 Oeste 26 Oeste 0 -- -- 64
2017-07-29 20:00:00 29.7 18 Oeste 30 Sudoeste 0 -- -- 54
2017-07-29 19:00:00 29.2 24 Oeste 32 Oeste 0 -- -- 62
2017-07-29 18:00:00 30.6 21 Sudoeste 32 Sudoeste 0 -- -- 58
2017-07-29 17:00:00 31.4 19 Sudoeste 28 Sudoeste 0 -- -- 56
2017-07-29 16:00:00 31.6 18 Sudoeste 26 Oeste 0 -- -- 53
2017-07-29 15:00:00 31.8 15 Sudoeste 29 Sudoeste 0 -- -- 52
2017-07-29 14:00:00 29.4 15 Sudoeste 24 Sur 0 -- -- 61
2017-07-29 13:00:00 29.1 14 Sudoeste 22 Sudoeste 0 -- -- 63
2017-07-29 12:00:00 27.5 16 Sudoeste 25 Sudoeste 0 -- -- 69
2017-07-29 11:00:00 27 13 Sudoeste 19 Sudoeste 0 -- -- 73
2017-07-29 10:00:00 22 3 Noroeste 6 Oeste 0 -- -- 80
2017-07-29 09:00:00 16.8 3 Nordeste 6 Nordeste 0 -- -- 95
2017-07-29 08:00:00 13.2 0 Calma 0 Calma 0 -- -- 92
2017-07-29 07:00:00 13.8 0 Calma 2 Norte 0 -- -- 91
2017-07-29 06:00:00 15.2 0 Calma 4 Noroeste 0 -- -- 89
2017-07-29 05:00:00 16.2 0 Calma 3 Noroeste 0 -- -- 94
2017-07-29 04:00:00 16 0 Calma 4 Norte 0 -- -- 89
2017-07-29 03:00:00 17.2 0 Calma 9 Nordeste 0 -- -- 89
2017-07-29 02:00:00 19.7 2 Noroeste 12 Sudoeste 0 -- -- 88
2017-07-29 01:00:00 19.4 4 Sur 9 Sur 0 -- -- 87
2017-07-29 00:00:00 22.1 5 Oeste 10 Oeste 0 -- -- 86
2017-07-28 23:00:00 22.9 10 Oeste 18 Oeste 0 -- -- 80
2017-07-28 22:00:00 24.3 12 Oeste 22 Sudoeste 0 -- -- 74
2017-07-28 21:00:00 27.3 19 Oeste 31 Oeste 0 -- -- 61
2017-07-28 20:00:00 30.6 23 Oeste 34 Oeste 0 -- -- 38
2017-07-28 19:00:00 31.9 24 Oeste 33 Oeste 0 -- -- 35
2017-07-28 18:00:00 32.7 21 Oeste 30 Sudoeste 0 -- -- 41
2017-07-28 17:00:00 33.2 22 Sudoeste 31 Sudoeste 0 -- -- 43
2017-07-28 16:00:00 33.8 22 Sudoeste 30 Oeste 0 -- -- 37
2017-07-28 15:00:00 34.4 18 Sudoeste 25 Sudoeste 0 -- -- 34
2017-07-28 14:00:00 33.3 17 Sudoeste 23 Sudoeste 0 -- -- 37
2017-07-28 13:00:00 32.4 13 Sudoeste 24 Sudoeste 0 -- -- 39
2017-07-28 12:00:00 32.1 12 Sudoeste 19 Sudoeste 0 -- -- 42
2017-07-28 11:00:00 28.4 3 Oeste 6 Noroeste 0 -- -- 46
2017-07-28 10:00:00 23.1 4 Noroeste 10 Noroeste 0 -- -- 63
2017-07-28 09:00:00 17.6 0 Calma 4 Sudeste 0 -- -- 84
2017-07-28 08:00:00 15.9 3 Este 8 Sudeste 0 -- -- 85
2017-07-28 07:00:00 17.5 4 Sudeste 13 Noroeste 0 -- -- 74
2017-07-28 06:00:00 19 7 Noroeste 13 Noroeste 0 -- -- 76
2017-07-28 05:00:00 20.2 7 Noroeste 9 Noroeste 0 -- -- 72
2017-07-28 04:00:00 19.1 5 Sudoeste 9 Sur 0 -- -- 88
2017-07-28 03:00:00 18.7 7 Sudoeste 12 Oeste 0 -- -- 84
2017-07-28 02:00:00 17.7 4 Sudoeste 9 Sur 0 -- -- 88
2017-07-28 01:00:00 18.2 3 Sudeste 5 Sur 0 -- -- 79
2017-07-28 00:00:00 20.2 4 Sudeste 12 Oeste 0 -- -- 77
2017-07-27 23:00:00 21.9 8 Oeste 13 Sudoeste 0 -- -- 78
2017-07-27 22:00:00 23.5 12 Oeste 23 Oeste 0 -- -- 73
2017-07-27 21:00:00 26.4 18 Oeste 30 Oeste 0 -- -- 59
2017-07-27 20:00:00 28.8 23 Oeste 31 Oeste 0 -- -- 45
2017-07-27 19:00:00 30.1 22 Oeste 34 Oeste 0 -- -- 41
2017-07-27 18:00:00 30.4 23 Sudoeste 33 Oeste 0 -- -- 48
2017-07-27 17:00:00 31.1 26 Sudoeste 33 Oeste 0 -- -- 49
2017-07-27 16:00:00 30.9 26 Sudoeste 32 Sudoeste 0 -- -- 47
2017-07-27 15:00:00 30.4 23 Sudoeste 30 Sudoeste 0 -- -- 50
2017-07-27 14:00:00 30.3 21 Sudoeste 28 Oeste 0 -- -- 52
2017-07-27 13:00:00 29.4 18 Sudoeste 24 Sudoeste 0 -- -- 53
2017-07-27 12:00:00 29.1 17 Sudoeste 25 Sudoeste 0 -- -- 54
2017-07-27 11:00:00 27.6 13 Sudoeste 20 Sudoeste 0 -- -- 61
2017-07-27 10:00:00 22.4 8 Sudoeste 13 Sudoeste 0 -- -- 98
2017-07-27 09:00:00 17.5 2 Nordeste 3 Nordeste 0 -- -- 98
2017-07-27 08:00:00 15.2 2 Oeste 4 Oeste 0 -- -- 96
2017-07-27 07:00:00 15.4 3 Oeste 4 Sudoeste 0 -- -- 96
2017-07-27 06:00:00 16 0 Calma 4 Sur 0 -- -- 96
2017-07-27 05:00:00 17.2 3 Sur 6 Sur 0 -- -- 96
2017-07-27 04:00:00 16.4 4 Sur 6 Sur 0 -- -- 94
2017-07-27 03:00:00 17.2 2 Sudeste 6 Sudeste 0 -- -- 91
2017-07-27 02:00:00 17.9 3 Sur 6 Sudeste 0 -- -- 91
2017-07-27 01:00:00 18.8 2 Sudeste 4 Este 0 -- -- 89
2017-07-27 00:00:00 20.1 2 Oeste 8 Oeste 0 -- -- 88
2017-07-26 23:00:00 21.7 4 Oeste 12 Oeste 0 -- -- 83
2017-07-26 22:00:00 23.2 9 Oeste 19 Sudoeste 0 -- -- 78
2017-07-26 21:00:00 26.5 14 Oeste 22 Oeste 0 -- -- 65
2017-07-26 20:00:00 28.6 16 Oeste 24 Oeste 0 -- -- 59
2017-07-26 19:00:00 28.9 19 Oeste 27 Sudoeste 0 -- -- 58
2017-07-26 18:00:00 29.1 21 Sudoeste 28 Oeste 0 -- -- 59
2017-07-26 17:00:00 29.2 19 Oeste 28 Sudoeste 0 -- -- 59
2017-07-26 16:00:00 28.9 20 Sudoeste 29 Sudoeste 0 -- -- 60
2017-07-26 15:00:00 28.7 19 Sudoeste 28 Sudoeste 0 -- -- 60
2017-07-26 14:00:00 28.4 16 Sudoeste 25 Sudoeste 0 -- -- 61
2017-07-26 13:00:00 27.8 14 Sudoeste 22 Sudoeste 0 -- -- 63
2017-07-26 12:00:00 26.9 14 Sudoeste 25 Sur 0 -- -- 66
2017-07-26 11:00:00 25.5 17 Sudoeste 32 Sur 0 -- -- 71
2017-07-26 10:00:00 23.5 20 Sur 27 Sur 0 -- -- 79
2017-07-26 09:00:00 21.8 17 Sur 26 Sur 0 -- -- 89
2017-07-26 08:00:00 20.2 12 Sur 18 Sur 0 -- -- 97
2017-07-26 07:00:00 17.4 5 Sudeste 10 Sudeste 0 -- -- 96
2017-07-26 06:00:00 17.2 4 Nordeste 9 Nordeste 0 -- -- 95
2017-07-26 05:00:00 17.3 3 Nordeste 6 Nordeste 0 -- -- 94
2017-07-26 04:00:00 17.3 3 Nordeste 6 Sur 0 -- -- 92
2017-07-26 03:00:00 18 0 Calma 4 Sudeste 0 -- -- 88
2017-07-26 02:00:00 19.2 2 Sudeste 7 Sudeste 0 -- -- 92
2017-07-26 01:00:00 19 3 Este 8 Sudeste 0 -- -- 85
2017-07-26 00:00:00 21.2 2 Sur 10 Sudoeste 0 -- -- 84
2017-07-25 23:00:00 22.3 10 Sudoeste 19 Sudoeste 0 -- -- 81
2017-07-25 22:00:00 23.1 13 Sudoeste 22 Sudoeste 0 -- -- 77
2017-07-25 21:00:00 24.5 17 Sudoeste 28 Sudoeste 0 -- -- 70
2017-07-25 20:00:00 26 22 Sudoeste 31 Sudoeste 0 -- -- 63
2017-07-25 19:00:00 27.4 23 Sudoeste 32 Sudoeste 0 -- -- 60
2017-07-25 18:00:00 29.5 24 Sudoeste 30 Sudoeste 0 -- -- 54
2017-07-25 17:00:00 30.8 24 Sudoeste 32 Sudoeste 0 -- -- 42
2017-07-25 16:00:00 31 23 Sudoeste 32 Sudoeste 0 -- -- 47
2017-07-25 15:00:00 31.1 23 Sudoeste 31 Sudoeste 0 -- -- 46
2017-07-25 14:00:00 32.6 19 Sudoeste 26 Sudoeste 0 -- -- 46
2017-07-25 13:00:00 31.6 17 Sudoeste 23 Sudoeste 0 -- -- 48
2017-07-25 12:00:00 32.6 6 Sur 13 Sur 0 -- -- 41
2017-07-25 11:00:00 29.7 3 Sudeste 8 Nordeste 0 -- -- 43
2017-07-25 10:00:00 24.9 5 Nordeste 9 Nordeste 0 -- -- 56
2017-07-25 09:00:00 19.3 3 Nordeste 8 Norte 0 -- -- 74
2017-07-25 08:00:00 16.6 3 Este 8 Noroeste 0 -- -- 75
2017-07-25 07:00:00 18.7 6 Noroeste 10 Noroeste 0 -- -- 72
2017-07-25 06:00:00 17.5 6 Noroeste 8 Oeste 0 -- -- 72
2017-07-25 05:00:00 17.4 4 Oeste 9 Oeste 0 -- -- 69
2017-07-25 04:00:00 18.2 5 Sudoeste 8 Sudeste 0 -- -- 68
2017-07-25 03:00:00 20.1 6 Este 10 Este 0 -- -- 63
2017-07-25 02:00:00 21.3 5 Oeste 10 Oeste 0 -- -- 59
2017-07-25 01:00:00 22 6 Oeste 12 Oeste 0 -- -- 63
2017-07-25 00:00:00 23.8 9 Oeste 17 Oeste 0 -- -- 67
2017-07-24 23:00:00 25.3 13 Oeste 24 Oeste 0 -- -- 62
2017-07-24 22:00:00 25.2 17 Oeste 34 Oeste 0 -- -- 68
2017-07-24 21:00:00 27.2 22 Oeste 32 Sudoeste 0 -- -- 59
2017-07-24 20:00:00 28.6 24 Oeste 37 Sudoeste 0 -- -- 56
2017-07-24 19:00:00 29.4 28 Oeste 39 Oeste 0 -- -- 54
2017-07-24 18:00:00 33.9 25 Sudoeste 34 Oeste 0 -- -- 39
2017-07-24 17:00:00 35 27 Sudoeste 36 Sudoeste 0 -- -- 33
2017-07-24 16:00:00 35.3 24 Oeste 37 Sudoeste 0 -- -- 34
2017-07-24 15:00:00 35.1 24 Oeste 34 Sudoeste 0 -- -- 32
2017-07-24 14:00:00 34.4 21 Oeste 27 Oeste 0 -- -- 35
2017-07-24 13:00:00 33.6 8 Oeste 16 Oeste 0 -- -- 36
2017-07-24 12:00:00 31.8 6 Nordeste 12 Este 0 -- -- 37
2017-07-24 11:00:00 28.3 5 Nordeste 10 Norte 0 -- -- 44
2017-07-24 10:00:00 23.5 5 Nordeste 9 Nordeste 0 -- -- 64
2017-07-24 09:00:00 19.4 5 Norte 13 Norte 0 -- -- 79
2017-07-24 08:00:00 15.3 3 Noroeste 6 Nordeste 0 -- -- 90
2017-07-24 07:00:00 14.9 3 Norte 9 Nordeste 0 -- -- 85
2017-07-24 06:00:00 16.3 3 Norte 10 Noroeste 0 -- -- 80
2017-07-24 05:00:00 17.4 6 Noroeste 11 Noroeste 0 -- -- 79
2017-07-24 04:00:00 18.1 2 Noroeste 6 Noroeste 0 -- -- 90
2017-07-24 03:00:00 19.6 3 Sudoeste 8 Sudoeste 0 -- -- 90
2017-07-24 02:00:00 20.6 6 Sur 16 Oeste 0 -- -- 86
2017-07-24 01:00:00 20.6 10 Sudoeste 13 Sudoeste 0 -- -- 83
2017-07-24 00:00:00 21.7 11 Oeste 18 Oeste 0 -- -- 76
2017-07-23 23:00:00 22.1 11 Oeste 19 Oeste 0 -- -- 71
2017-07-23 22:00:00 22.8 14 Oeste 28 Oeste 0 -- -- 69
2017-07-23 21:00:00 25.1 19 Oeste 36 Sudoeste 0 -- -- 61
2017-07-23 20:00:00 27 25 Oeste 35 Oeste 0 -- -- 55
2017-07-23 19:00:00 29.4 26 Oeste 33 Sudoeste 0 -- -- 47
2017-07-23 18:00:00 31.5 24 Sudoeste 32 Sudoeste 0 -- -- 41
2017-07-23 17:00:00 32.2 24 Oeste 33 Sudoeste 0 -- -- 37
2017-07-23 16:00:00 32.4 23 Oeste 32 Oeste 0 -- -- 34
2017-07-23 15:00:00 31.5 21 Oeste 29 Sudoeste 0 -- -- 39
2017-07-23 14:00:00 29.9 19 Sudoeste 28 Oeste 0 -- -- 47
2017-07-23 13:00:00 29.8 18 Sudoeste 24 Sudoeste 0 -- -- 48
2017-07-23 12:00:00 29.8 5 Sudeste 13 Este 0 -- -- 44
2017-07-23 11:00:00 25.3 3 Nordeste 10 Norte 0 -- -- 59
2017-07-23 10:00:00 20.5 4 Norte 8 Noroeste 0 -- -- 81
2017-07-23 09:00:00 15.7 0 Calma 5 Noroeste 0 -- -- 95
2017-07-23 08:00:00 13 2 Noroeste 6 Nordeste 0 -- -- 92
2017-07-23 07:00:00 14.1 4 Nordeste 9 Norte 0 -- -- 91
2017-07-23 06:00:00 16 3 Norte 8 Oeste 0 -- -- 85
2017-07-23 05:00:00 17 5 Oeste 11 Oeste 0 -- -- 85
2017-07-23 04:00:00 17.9 6 Oeste 13 Oeste 0 -- -- 96
2017-07-23 03:00:00 17.4 6 Sudoeste 10 Sudoeste 0 -- -- 95
2017-07-23 02:00:00 17.5 4 Sudoeste 12 Oeste 0 -- -- 91
2017-07-23 01:00:00 17.3 12 Oeste 13 Oeste 0 -- -- 93
2017-07-23 00:00:00 17.8 6 Sudoeste 8 Sudoeste 0 -- -- 82